createdAt,value
2023-04-15T00:11:20.993Z,5.67
2023-04-15T00:26:25.486Z,4.13
2023-04-15T00:41:30.057Z,3.80
2023-04-15T00:56:38.071Z,4.67
2023-04-15T01:11:42.562Z,4.10
2023-04-15T01:26:48.732Z,3.93
2023-04-15T01:41:53.861Z,3.07
2023-04-15T01:56:58.757Z,3.53
2023-04-15T02:12:03.359Z,3.80
2023-04-15T02:27:07.853Z,3.33
2023-04-15T02:42:13.780Z,5.73
2023-04-15T02:57:18.258Z,7.57
2023-04-15T03:12:22.832Z,8.00
2023-04-15T03:27:30.689Z,6.73
2023-04-15T03:42:38.457Z,3.10
2023-04-15T03:57:42.929Z,1.50
2023-04-15T04:12:47.381Z,1.63
2023-04-15T04:27:51.982Z,1.73
2023-04-15T04:42:56.735Z,0.70
2023-04-15T04:58:01.370Z,0.60
2023-04-15T05:13:06.021Z,0.73
2023-04-15T05:28:10.473Z,1.00
2023-04-15T05:43:14.885Z,1.00
2023-04-15T05:58:19.352Z,1.17
2023-04-15T06:13:23.873Z,1.00
2023-04-15T06:28:28.426Z,1.17
2023-04-15T06:43:33.029Z,1.00
2023-04-15T06:58:37.607Z,1.30
2023-04-15T07:13:42.186Z,0.70
2023-04-15T07:28:47.337Z,16.17
2023-04-15T07:43:51.923Z,0.57
2023-04-15T07:58:56.540Z,0.53
2023-04-15T08:14:01.767Z,0.57
2023-04-15T08:29:06.203Z,0.40
2023-04-15T08:44:11.425Z,0.33
2023-04-15T08:59:16.510Z,0.60
2023-04-15T09:14:21.029Z,0.43
2023-04-15T09:29:27.027Z,0.70
2023-04-15T09:44:31.522Z,0.67
2023-04-15T09:59:36.467Z,0.60
2023-04-15T10:14:44.385Z,0.80
2023-04-15T10:29:49.545Z,0.93
2023-04-15T10:44:58.317Z,1.20
2023-04-15T11:00:13.815Z,0.70
2023-04-15T11:15:31.844Z,0.87
2023-04-15T11:30:37.906Z,1.00
2023-04-15T11:45:54.710Z,1.07
2023-04-15T12:01:00.900Z,0.73
2023-04-15T12:16:06.577Z,1.03
2023-04-15T12:31:13.040Z,1.90
2023-04-15T12:46:17.658Z,1.20
2023-04-15T13:01:22.304Z,1.03
2023-04-15T13:16:26.789Z,0.80
2023-04-15T13:31:31.446Z,1.60
2023-04-15T13:46:36.050Z,0.70
2023-04-15T14:01:41.421Z,1.10
2023-04-15T14:16:46.151Z,1.13
2023-04-15T14:32:04.158Z,1.57
2023-04-15T14:47:16.075Z,1.47
2023-04-15T15:02:37.195Z,1.93
2023-04-15T15:17:44.139Z,2.10
2023-04-15T15:32:48.643Z,1.63
2023-04-15T15:47:53.272Z,1.60
2023-04-15T16:18:06.005Z,3.43
2023-04-15T16:33:10.887Z,4.47
2023-04-15T16:48:15.344Z,2.50
2023-04-15T17:03:20.034Z,3.43
2023-04-15T17:18:24.651Z,4.03
2023-04-15T17:33:57.805Z,5.70
2023-04-15T17:48:53.576Z,3.57
2023-04-15T18:03:58.135Z,3.10
2023-04-15T18:19:02.699Z,4.50
2023-04-15T18:34:07.342Z,6.40
2023-04-15T18:49:12.580Z,5.73
2023-04-15T19:04:17.059Z,5.90
2023-04-15T19:19:21.671Z,6.23
2023-04-15T19:34:26.277Z,5.77
2023-04-15T19:49:31.493Z,6.83
2023-04-15T20:04:36.083Z,7.77
2023-04-15T20:19:40.667Z,7.87
2023-04-15T20:34:45.840Z,7.80
2023-04-15T20:49:50.858Z,9.13
2023-04-15T21:04:55.330Z,8.47
2023-04-15T21:19:59.893Z,8.00
2023-04-15T21:35:04.787Z,7.03
2023-04-15T21:50:10.589Z,6.10
2023-04-15T22:05:15.033Z,5.80
2023-04-15T22:20:19.828Z,6.13
2023-04-15T22:35:24.250Z,7.27
2023-04-15T22:50:28.773Z,5.07
2023-04-15T23:05:35.004Z,4.20
2023-04-15T23:20:39.460Z,4.07
2023-04-15T23:35:44.008Z,4.57
2023-04-15T23:50:48.519Z,4.80
